createdAt,value
2023-05-01T00:01:57.105Z,7.14
2023-05-01T00:04:57.105Z,7.20
2023-05-01T00:07:57.011Z,7.21
2023-05-01T00:10:58.024Z,7.18
2023-05-01T00:13:58.219Z,7.12
2023-05-01T00:16:58.376Z,7.06
2023-05-01T00:19:59.229Z,7.01
2023-05-01T00:23:00.001Z,6.97
2023-05-01T00:26:01.988Z,6.94
2023-05-01T00:29:02.029Z,6.90
2023-05-01T00:32:08.038Z,6.89
2023-05-01T00:35:08.075Z,6.87
2023-05-01T00:38:08.065Z,6.85
2023-05-01T00:41:08.208Z,6.85
2023-05-01T00:44:08.086Z,6.87
2023-05-01T00:47:08.057Z,6.91
2023-05-01T00:50:08.086Z,6.96
2023-05-01T00:53:09.018Z,7.03
2023-05-01T00:56:10.090Z,7.09
2023-05-01T00:59:11.130Z,7.14
2023-05-01T01:02:11.125Z,7.16
2023-05-01T01:05:11.096Z,7.15
2023-05-01T01:08:12.155Z,7.13
2023-05-01T01:11:21.089Z,7.12
2023-05-01T01:14:24.097Z,7.11
2023-05-01T01:17:24.076Z,7.13
2023-05-01T01:20:24.087Z,7.11
2023-05-01T01:23:34.137Z,7.07
2023-05-01T01:26:35.150Z,7.03
2023-05-01T01:29:35.171Z,6.99
2023-05-01T01:32:54.307Z,6.95
2023-05-01T01:35:56.156Z,6.91
2023-05-01T01:39:06.138Z,6.87
2023-05-01T01:42:07.152Z,6.85
2023-05-01T01:45:09.158Z,6.84
2023-05-01T01:48:09.168Z,6.84
2023-05-01T01:51:11.160Z,6.81
2023-05-01T01:54:11.232Z,6.77
2023-05-01T01:57:11.150Z,6.71
2023-05-01T02:00:15.478Z,6.64
2023-05-01T02:03:18.208Z,6.58
2023-05-01T02:06:18.212Z,6.52
2023-05-01T02:09:19.175Z,6.51
2023-05-01T02:12:19.207Z,6.50
2023-05-01T02:15:20.180Z,6.47
2023-05-01T02:18:21.220Z,6.49
2023-05-01T02:21:21.335Z,6.55
2023-05-01T02:24:22.253Z,6.70
2023-05-01T02:27:26.195Z,6.87
2023-05-01T02:30:26.280Z,7.04
2023-05-01T02:33:26.219Z,7.18
2023-05-01T02:36:26.255Z,7.27
2023-05-01T02:39:26.237Z,7.34
2023-05-01T02:42:26.221Z,7.40
2023-05-01T02:45:35.256Z,7.45
2023-05-01T02:48:37.244Z,7.51
2023-05-01T02:51:39.330Z,7.52
2023-05-01T02:54:39.293Z,7.53
2023-05-01T02:57:39.307Z,7.53
2023-05-01T03:00:41.255Z,7.51
2023-05-01T03:03:41.305Z,7.50
2023-05-01T03:06:41.324Z,7.48
2023-05-01T03:09:41.262Z,7.48
2023-05-01T03:12:41.333Z,7.48
2023-05-01T03:15:41.330Z,7.50
2023-05-01T03:18:41.311Z,7.54
2023-05-01T03:21:43.334Z,7.59
2023-05-01T03:24:43.343Z,7.65
2023-05-01T03:27:43.298Z,7.71
2023-05-01T03:30:43.362Z,7.76
2023-05-01T03:33:43.324Z,7.81
2023-05-01T03:36:43.334Z,7.85
2023-05-01T03:39:43.334Z,7.87
2023-05-01T03:42:54.418Z,7.90
2023-05-01T03:45:54.436Z,7.92
2023-05-01T03:48:55.341Z,7.95
2023-05-01T03:51:56.472Z,7.97
2023-05-01T03:54:56.358Z,8.00
2023-05-01T03:58:09.417Z,8.06
2023-05-01T04:01:09.394Z,8.12
2023-05-01T04:04:09.558Z,8.17
2023-05-01T04:07:11.344Z,8.22
2023-05-01T04:10:13.389Z,8.30
2023-05-01T04:13:20.351Z,8.39
2023-05-01T04:16:20.449Z,8.43
2023-05-01T04:19:22.553Z,8.47
2023-05-01T04:22:24.488Z,8.52
2023-05-01T04:25:25.431Z,8.57
2023-05-01T04:28:29.425Z,8.61
2023-05-01T04:31:29.503Z,8.66
2023-05-01T04:34:29.427Z,8.71
2023-05-01T04:37:29.415Z,8.77
2023-05-01T04:40:30.429Z,8.87
2023-05-01T04:43:31.540Z,8.95
2023-05-01T04:46:32.509Z,9.03
2023-05-01T04:49:32.438Z,9.10
2023-05-01T04:52:32.542Z,9.20
2023-05-01T04:55:32.432Z,9.33
2023-05-01T04:58:37.456Z,9.51
2023-05-01T05:01:39.585Z,9.65
2023-05-01T05:04:39.472Z,9.70
2023-05-01T05:07:39.489Z,9.75
2023-05-01T05:10:57.506Z,9.89
2023-05-01T05:14:19.494Z,10.08
2023-05-01T05:17:19.525Z,10.47
2023-05-01T05:20:19.499Z,10.91
2023-05-01T05:23:19.573Z,11.41
2023-05-01T05:26:19.649Z,11.84
2023-05-01T05:29:19.528Z,12.23
2023-05-01T05:32:19.948Z,12.70
2023-05-01T05:35:20.605Z,13.24
2023-05-01T05:38:15.216Z,13.83
2023-05-01T05:41:17.542Z,14.11
2023-05-01T05:44:18.570Z,14.37
2023-05-01T05:47:18.555Z,14.48
2023-05-01T05:50:19.678Z,14.87
2023-05-01T05:53:20.842Z,15.27
2023-05-01T05:56:21.624Z,15.43
2023-05-01T05:59:21.615Z,15.51
2023-05-01T06:02:21.704Z,15.58
2023-05-01T06:05:21.638Z,15.54
2023-05-01T06:08:22.749Z,15.75
2023-05-01T06:11:22.598Z,16.06
2023-05-01T06:14:22.695Z,16.31
2023-05-01T06:17:22.665Z,16.41
2023-05-01T06:20:22.780Z,16.52
2023-05-01T06:23:22.861Z,16.64
2023-05-01T06:26:43.084Z,16.88
2023-05-01T06:29:45.156Z,17.02
2023-05-01T06:32:47.691Z,17.05
2023-05-01T06:35:49.303Z,16.85
2023-05-01T06:38:56.003Z,16.92
2023-05-01T06:41:58.727Z,17.38
2023-05-01T06:45:04.795Z,17.85
2023-05-01T06:48:04.711Z,17.91
2023-05-01T06:51:05.681Z,17.97
2023-05-01T06:54:07.516Z,18.15
2023-05-01T06:57:07.675Z,18.22
2023-05-01T07:00:07.733Z,18.23
2023-05-01T07:03:08.799Z,18.03
2023-05-01T07:06:09.037Z,18.00
2023-05-01T07:09:09.289Z,18.22
2023-05-01T07:12:09.928Z,18.49
2023-05-01T07:15:09.780Z,18.37
2023-05-01T07:18:11.786Z,17.99
2023-05-01T07:21:06.230Z,17.84
2023-05-01T07:24:08.792Z,17.99
2023-05-01T07:27:08.781Z,18.34
2023-05-01T07:30:08.742Z,18.61
2023-05-01T07:33:10.002Z,18.99
2023-05-01T07:36:10.749Z,19.25
2023-05-01T07:39:10.719Z,19.13
2023-05-01T07:42:10.750Z,18.69
2023-05-01T07:45:10.793Z,18.44
2023-05-01T07:48:10.805Z,18.52
2023-05-01T07:51:10.863Z,18.79
2023-05-01T07:54:10.787Z,18.65
2023-05-01T07:57:10.811Z,18.56
2023-05-01T08:00:10.846Z,18.67
2023-05-01T08:03:11.027Z,18.78
2023-05-01T08:06:12.006Z,18.66
2023-05-01T08:09:11.879Z,18.75
2023-05-01T08:12:17.874Z,18.90
2023-05-01T08:15:17.974Z,19.23
2023-05-01T08:18:17.836Z,19.69
2023-05-01T08:21:17.793Z,20.06
2023-05-01T08:24:17.854Z,20.47
2023-05-01T08:27:17.901Z,20.84
2023-05-01T08:30:18.454Z,20.86
2023-05-01T08:33:18.893Z,21.07
2023-05-01T08:36:20.671Z,21.22
2023-05-01T08:39:21.881Z,21.14
2023-05-01T08:42:21.900Z,21.07
2023-05-01T08:45:22.899Z,21.05
2023-05-01T08:48:23.873Z,20.91
2023-05-01T08:51:28.168Z,20.33
2023-05-01T08:54:27.897Z,19.65
2023-05-01T08:57:28.951Z,19.17
2023-05-01T09:00:31.905Z,19.24
2023-05-01T09:03:32.006Z,19.25
2023-05-01T09:06:34.056Z,19.33
2023-05-01T09:09:35.046Z,19.73
2023-05-01T09:12:41.994Z,19.84
2023-05-01T09:15:41.949Z,19.71
2023-05-01T09:18:42.947Z,19.78
2023-05-01T09:21:42.928Z,20.07
2023-05-01T09:24:42.967Z,20.15
2023-05-01T09:27:46.936Z,19.83
2023-05-01T09:30:49.950Z,19.65
2023-05-01T09:33:49.992Z,19.47
2023-05-01T09:36:49.982Z,19.72
2023-05-01T09:39:50.010Z,20.24
2023-05-01T09:42:51.004Z,20.29
2023-05-01T09:45:51.977Z,20.27
2023-05-01T09:48:53.030Z,20.09
2023-05-01T09:51:53.068Z,20.11
2023-05-01T09:54:54.050Z,20.56
2023-05-01T09:57:55.003Z,20.55
2023-05-01T10:01:01.042Z,20.49
2023-05-01T10:04:06.091Z,20.37
2023-05-01T10:07:07.105Z,20.58
2023-05-01T10:10:07.137Z,20.78
2023-05-01T10:13:07.035Z,20.85
2023-05-01T10:16:10.064Z,20.58
2023-05-01T10:19:13.297Z,20.48
2023-05-01T10:22:14.135Z,20.42
2023-05-01T10:25:14.077Z,20.32
2023-05-01T10:28:16.062Z,20.70
2023-05-01T10:31:16.096Z,21.17
2023-05-01T10:34:17.096Z,21.48
2023-05-01T10:37:23.274Z,21.61
2023-05-01T10:40:41.105Z,21.79
2023-05-01T10:43:41.130Z,21.84
2023-05-01T10:46:41.221Z,21.57
2023-05-01T10:50:02.276Z,21.43
2023-05-01T10:53:22.137Z,21.24
2023-05-01T10:56:35.081Z,20.87
2023-05-01T10:59:35.167Z,20.68
2023-05-01T11:02:36.258Z,20.60
2023-05-01T11:05:57.268Z,20.45
2023-05-01T11:08:59.189Z,20.65
2023-05-01T11:12:00.190Z,21.20
2023-05-01T11:15:10.140Z,21.57
2023-05-01T11:18:12.264Z,21.75
2023-05-01T11:21:12.162Z,21.81
2023-05-01T11:24:15.258Z,21.79
2023-05-01T11:27:16.198Z,21.67
2023-05-01T11:30:16.201Z,21.76
2023-05-01T11:33:20.639Z,21.95
2023-05-01T11:36:21.353Z,22.23
2023-05-01T11:39:21.817Z,22.40
2023-05-01T11:42:22.873Z,22.36
2023-05-01T11:45:23.272Z,22.25
2023-05-01T11:48:29.175Z,22.39
2023-05-01T11:51:41.364Z,22.72
2023-05-01T11:55:18.111Z,22.80
2023-05-01T11:58:24.056Z,22.61
2023-05-01T12:01:30.282Z,22.24
2023-05-01T12:04:39.305Z,22.05
2023-05-01T12:07:40.280Z,21.62
2023-05-01T12:10:40.394Z,21.37
2023-05-01T12:13:41.961Z,21.44
2023-05-01T12:16:43.314Z,21.40
2023-05-01T12:19:43.302Z,21.48
2023-05-01T12:22:43.276Z,21.44
2023-05-01T12:25:43.446Z,21.20
2023-05-01T12:28:43.294Z,21.10
2023-05-01T12:31:43.372Z,21.02
2023-05-01T12:34:43.360Z,20.84
2023-05-01T12:37:44.354Z,20.46
2023-05-01T12:40:44.305Z,20.16
2023-05-01T12:43:44.503Z,19.99
2023-05-01T12:46:44.414Z,19.86
2023-05-01T12:49:44.342Z,19.90
2023-05-01T12:52:44.305Z,19.67
2023-05-01T12:55:44.567Z,19.53
2023-05-01T12:58:51.347Z,19.58
2023-05-01T13:01:52.414Z,19.68
2023-05-01T13:04:53.435Z,19.72
2023-05-01T13:08:00.356Z,19.59
2023-05-01T13:11:01.484Z,19.41
2023-05-01T13:14:01.364Z,19.30
2023-05-01T13:17:01.386Z,19.17
2023-05-01T13:20:06.453Z,18.88
2023-05-01T13:23:06.388Z,18.76
2023-05-01T13:26:10.451Z,18.97
2023-05-01T13:29:11.383Z,19.04
2023-05-01T13:32:12.524Z,18.96
2023-05-01T13:35:14.411Z,18.78
2023-05-01T13:38:29.393Z,18.48
2023-05-01T13:41:30.449Z,18.08
2023-05-01T13:44:30.509Z,17.91
2023-05-01T13:47:32.556Z,17.77
2023-05-01T13:50:33.443Z,17.77
2023-05-01T13:53:33.674Z,17.74
2023-05-01T13:56:33.469Z,17.66
2023-05-01T13:59:33.417Z,17.59
2023-05-01T14:02:33.871Z,17.58
2023-05-01T14:05:36.457Z,17.62
2023-05-01T14:08:37.510Z,17.49
2023-05-01T14:11:37.492Z,17.37
2023-05-01T14:14:37.514Z,17.35
2023-05-01T14:17:50.484Z,17.32
2023-05-01T14:21:08.185Z,17.22
2023-05-01T14:24:08.911Z,17.06
2023-05-01T14:27:10.661Z,16.90
2023-05-01T14:30:14.608Z,16.76
2023-05-01T14:33:17.676Z,16.69
2023-05-01T14:36:18.527Z,16.56
2023-05-01T14:39:18.496Z,16.53
2023-05-01T14:42:20.568Z,16.51
2023-05-01T14:45:31.503Z,16.37
2023-05-01T14:48:37.551Z,16.33
2023-05-01T14:51:37.545Z,16.35
2023-05-01T14:54:37.545Z,16.39
2023-05-01T14:57:37.642Z,16.42
2023-05-01T15:00:37.553Z,16.43
2023-05-01T15:03:37.828Z,16.37
2023-05-01T15:06:37.666Z,16.32
2023-05-01T15:09:37.632Z,16.30
2023-05-01T15:12:37.581Z,16.27
2023-05-01T15:15:37.612Z,16.23
2023-05-01T15:18:37.621Z,16.21
2023-05-01T15:21:37.608Z,16.15
2023-05-01T15:24:39.611Z,15.96
2023-05-01T15:27:39.611Z,15.88
2023-05-01T15:30:40.567Z,15.85
2023-05-01T15:33:42.979Z,15.79
2023-05-01T15:36:42.700Z,15.71
2023-05-01T15:39:43.603Z,15.61
2023-05-01T15:42:43.722Z,15.46
2023-05-01T15:45:48.852Z,15.31
2023-05-01T15:48:48.800Z,15.25
2023-05-01T15:51:49.689Z,15.24
2023-05-01T15:54:52.866Z,15.26
2023-05-01T15:57:54.668Z,15.28
2023-05-01T16:00:54.706Z,15.21
2023-05-01T16:03:56.856Z,15.11
2023-05-01T16:06:56.666Z,14.99
2023-05-01T16:09:57.965Z,14.84
2023-05-01T16:12:59.676Z,14.75
2023-05-01T16:15:59.746Z,14.67
2023-05-01T16:18:59.703Z,14.61
2023-05-01T16:22:00.765Z,14.56
2023-05-01T16:25:01.702Z,14.53
2023-05-01T16:28:01.696Z,14.48
2023-05-01T16:31:01.771Z,14.40
2023-05-01T16:33:56.120Z,14.29
2023-05-01T16:36:58.572Z,14.20
2023-05-01T16:39:59.040Z,14.10
2023-05-01T16:43:07.742Z,14.03
2023-05-01T16:46:07.813Z,13.92
2023-05-01T16:49:07.816Z,13.79
2023-05-01T16:52:08.732Z,13.65
2023-05-01T16:55:09.744Z,13.54
2023-05-01T16:58:12.781Z,13.43
2023-05-01T17:01:20.816Z,13.32
2023-05-01T17:04:20.802Z,13.23
2023-05-01T17:07:20.754Z,13.14
2023-05-01T17:10:20.764Z,13.04
2023-05-01T17:13:21.764Z,12.90
2023-05-01T17:16:21.932Z,12.78
2023-05-01T17:19:21.794Z,12.64
2023-05-01T17:22:22.830Z,12.52
2023-05-01T17:25:22.818Z,12.38
2023-05-01T17:28:23.041Z,12.26
2023-05-01T17:31:22.979Z,12.12
2023-05-01T17:34:25.459Z,12.01
2023-05-01T17:37:29.907Z,11.89
2023-05-01T17:40:31.942Z,11.80
2023-05-01T17:43:32.938Z,11.71
2023-05-01T17:46:32.957Z,11.61
2023-05-01T17:49:32.867Z,11.52
2023-05-01T17:52:33.909Z,11.44
2023-05-01T17:55:33.901Z,11.37
2023-05-01T17:58:34.016Z,11.30
2023-05-01T18:01:36.991Z,11.24
2023-05-01T18:04:38.217Z,11.18
2023-05-01T18:07:47.896Z,11.13
2023-05-01T18:10:49.096Z,11.07
2023-05-01T18:13:53.860Z,10.98
2023-05-01T18:16:54.978Z,10.90
2023-05-01T18:19:54.894Z,10.85
2023-05-01T18:22:54.895Z,10.77
2023-05-01T18:25:55.952Z,10.69
2023-05-01T18:28:55.917Z,10.63
2023-05-01T18:31:57.085Z,10.59
2023-05-01T18:34:58.998Z,10.55
2023-05-01T18:37:59.919Z,10.50
2023-05-01T18:41:02.947Z,10.44
2023-05-01T18:44:02.916Z,10.38
2023-05-01T18:47:02.921Z,10.33
2023-05-01T18:50:02.977Z,10.26
2023-05-01T18:53:02.981Z,10.20
2023-05-01T18:56:04.032Z,10.15
2023-05-01T18:59:04.959Z,10.08
2023-05-01T19:02:06.046Z,10.01
2023-05-01T19:05:08.033Z,9.93
2023-05-01T19:08:13.330Z,9.86
2023-05-01T19:11:13.083Z,9.79
2023-05-01T19:14:12.976Z,9.72
2023-05-01T19:17:13.094Z,9.65
2023-05-01T19:20:12.977Z,9.57
2023-05-01T19:23:13.005Z,9.50
2023-05-01T19:26:14.004Z,9.42
2023-05-01T19:29:14.031Z,9.38
2023-05-01T19:32:14.145Z,9.32
2023-05-01T19:35:17.113Z,9.26
2023-05-01T19:38:17.042Z,9.21
2023-05-01T19:41:18.045Z,9.21
2023-05-01T19:44:18.104Z,9.22
2023-05-01T19:47:18.077Z,9.24
2023-05-01T19:50:18.065Z,9.23
2023-05-01T19:53:18.164Z,9.21
2023-05-01T19:56:18.063Z,9.18
2023-05-01T19:59:18.164Z,9.16
2023-05-01T20:02:18.210Z,9.14
2023-05-01T20:05:19.077Z,9.10
2023-05-01T20:08:19.157Z,9.06
2023-05-01T20:11:19.067Z,9.01
2023-05-01T20:14:19.100Z,8.94
2023-05-01T20:17:19.211Z,8.86
2023-05-01T20:20:19.131Z,8.79
2023-05-01T20:23:24.095Z,8.74
2023-05-01T20:26:26.134Z,8.67
2023-05-01T20:29:26.140Z,8.58
2023-05-01T20:32:26.323Z,8.50
2023-05-01T20:35:26.122Z,8.42
2023-05-01T20:38:26.125Z,8.35
2023-05-01T20:41:26.142Z,8.27
2023-05-01T20:44:26.149Z,8.21
2023-05-01T20:47:26.213Z,8.16
2023-05-01T20:50:27.088Z,8.11
2023-05-01T20:53:27.194Z,8.07
2023-05-01T20:56:27.162Z,8.08
2023-05-01T20:59:27.145Z,8.13
2023-05-01T21:02:27.223Z,8.21
2023-05-01T21:05:28.181Z,8.28
2023-05-01T21:08:28.268Z,8.26
2023-05-01T21:11:28.173Z,8.26
2023-05-01T21:14:28.225Z,8.33
2023-05-01T21:17:28.249Z,8.33
2023-05-01T21:20:28.270Z,8.30
2023-05-01T21:23:28.275Z,8.28
2023-05-01T21:26:28.198Z,8.29
2023-05-01T21:29:28.197Z,8.29
2023-05-01T21:32:29.236Z,8.32
2023-05-01T21:35:29.217Z,8.29
2023-05-01T21:38:29.209Z,8.21
2023-05-01T21:41:29.234Z,8.13
2023-05-01T21:44:29.235Z,8.10
2023-05-01T21:47:29.260Z,8.08
2023-05-01T21:50:29.256Z,8.08
2023-05-01T21:53:30.259Z,8.09
2023-05-01T21:56:30.265Z,8.05
2023-05-01T21:59:23.381Z,8.00
2023-05-01T22:02:23.386Z,7.97
2023-05-01T22:05:23.356Z,7.97
2023-05-01T22:08:23.236Z,7.98
2023-05-01T22:11:23.325Z,8.10
2023-05-01T22:14:30.927Z,8.12
2023-05-01T22:17:40.466Z,8.06
2023-05-01T22:20:40.384Z,8.06
2023-05-01T22:23:40.302Z,8.05
2023-05-01T22:26:40.282Z,8.06
2023-05-01T22:29:40.340Z,8.05
2023-05-01T22:32:40.330Z,8.04
2023-05-01T22:35:40.331Z,7.99
2023-05-01T22:38:40.388Z,8.01
2023-05-01T22:41:40.290Z,8.07
2023-05-01T22:44:40.424Z,8.17
2023-05-01T22:47:40.372Z,8.20
2023-05-01T22:50:41.476Z,8.23
2023-05-01T22:53:43.421Z,8.19
2023-05-01T22:56:43.340Z,8.18
2023-05-01T22:59:43.634Z,8.17
2023-05-01T23:02:43.451Z,8.07
2023-05-01T23:05:43.405Z,7.96
2023-05-01T23:08:43.417Z,7.85
2023-05-01T23:11:43.432Z,7.79
2023-05-01T23:14:43.393Z,7.79
2023-05-01T23:17:47.449Z,7.85
2023-05-01T23:20:47.422Z,7.85
2023-05-01T23:23:49.380Z,7.83
2023-05-01T23:26:49.832Z,7.83
2023-05-01T23:29:50.462Z,7.85
2023-05-01T23:32:50.763Z,7.86
2023-05-01T23:35:51.452Z,7.84
2023-05-01T23:38:54.472Z,7.82
2023-05-01T23:41:56.442Z,7.80
2023-05-01T23:44:56.507Z,7.80
2023-05-01T23:47:57.465Z,7.78
2023-05-01T23:50:57.418Z,7.76
2023-05-01T23:53:57.509Z,7.73
2023-05-01T23:56:58.484Z,7.72
2023-05-01T23:59:59.644Z,7.73
